createdAt,value
2018-05-29T00:01:05.426Z,4.70
2018-05-29T00:03:32.882Z,4.33
2018-05-29T00:06:00.345Z,4.83
2018-05-29T00:08:27.808Z,4.67
2018-05-29T00:10:55.288Z,5.07
2018-05-29T00:13:23.575Z,4.23
2018-05-29T00:15:51.029Z,5.30
2018-05-29T00:18:19.252Z,5.57
2018-05-29T00:20:46.711Z,5.30
2018-05-29T00:23:14.180Z,5.73
2018-05-29T00:25:41.637Z,4.90
2018-05-29T00:28:09.086Z,5.27
2018-05-29T00:30:36.534Z,4.93
2018-05-29T00:33:03.996Z,5.87
2018-05-29T00:35:31.439Z,5.30
2018-05-29T00:37:58.902Z,4.70
2018-05-29T00:40:26.351Z,4.63
2018-05-29T00:42:53.786Z,4.10
2018-05-29T00:45:21.230Z,4.33
2018-05-29T00:47:48.699Z,4.27
2018-05-29T00:50:16.151Z,5.20
2018-05-29T00:52:43.604Z,4.83
2018-05-29T00:55:23.008Z,4.20
2018-05-29T00:57:50.456Z,4.53
2018-05-29T01:00:17.897Z,4.03
2018-05-29T01:02:45.348Z,5.00
2018-05-29T01:05:12.788Z,4.20
2018-05-29T01:07:40.267Z,4.70
2018-05-29T01:10:07.735Z,4.10
2018-05-29T01:12:35.188Z,4.30
2018-05-29T01:15:02.620Z,4.53
2018-05-29T01:17:30.070Z,4.50
2018-05-29T01:19:57.546Z,4.80
2018-05-29T01:22:24.981Z,3.90
2018-05-29T01:24:52.421Z,4.67
2018-05-29T01:27:20.943Z,5.07
2018-05-29T01:29:48.373Z,4.80
2018-05-29T01:32:15.834Z,5.20
2018-05-29T01:34:43.287Z,5.80
2018-05-29T01:37:10.742Z,5.50
2018-05-29T01:39:38.187Z,5.50
2018-05-29T01:42:05.731Z,4.83
2018-05-29T01:44:33.956Z,5.03
2018-05-29T01:47:01.402Z,4.70
2018-05-29T01:49:28.879Z,5.30
2018-05-29T01:51:56.331Z,4.43
2018-05-29T01:54:23.780Z,4.97
2018-05-29T01:56:51.224Z,4.30
2018-05-29T01:59:18.676Z,5.43
2018-05-29T02:01:49.959Z,4.77
2018-05-29T02:04:17.443Z,5.37
2018-05-29T02:06:44.877Z,5.03
2018-05-29T02:09:12.484Z,4.20
2018-05-29T02:11:39.936Z,4.77
2018-05-29T02:14:07.386Z,4.40
2018-05-29T02:16:34.837Z,4.67
2018-05-29T02:19:03.072Z,4.80
2018-05-29T02:21:30.517Z,4.33
2018-05-29T02:23:57.984Z,4.90
2018-05-29T02:26:25.439Z,5.20
2018-05-29T02:28:52.900Z,5.03
2018-05-29T02:31:20.372Z,4.17
2018-05-29T02:33:47.830Z,4.30
2018-05-29T02:36:16.051Z,4.20
2018-05-29T02:38:43.524Z,4.83
2018-05-29T02:41:10.972Z,4.30
2018-05-29T02:43:38.414Z,3.87
2018-05-29T02:46:05.885Z,4.60
2018-05-29T02:48:33.355Z,5.73
2018-05-29T02:51:00.800Z,4.57
2018-05-29T02:53:28.270Z,4.50
2018-05-29T02:55:55.723Z,4.73
2018-05-29T02:58:23.178Z,4.07
2018-05-29T03:00:50.650Z,4.10
2018-05-29T03:03:18.092Z,5.00
2018-05-29T03:05:45.548Z,4.23
2018-05-29T03:08:13.007Z,4.57
2018-05-29T03:10:40.472Z,4.10
2018-05-29T03:13:07.908Z,4.47
2018-05-29T03:15:35.377Z,4.53
2018-05-29T03:18:02.839Z,4.40
2018-05-29T03:20:30.273Z,4.63
2018-05-29T03:22:57.714Z,5.10
2018-05-29T03:25:25.216Z,4.20
2018-05-29T03:27:52.685Z,4.70
2018-05-29T03:30:20.131Z,4.13
2018-05-29T03:32:47.590Z,4.43
2018-05-29T03:35:15.030Z,5.47
2018-05-29T03:37:42.496Z,4.50
2018-05-29T03:40:09.965Z,4.90
2018-05-29T03:42:37.424Z,5.00
2018-05-29T03:45:04.876Z,4.43
2018-05-29T03:47:32.361Z,5.40
2018-05-29T03:49:59.828Z,4.50
2018-05-29T03:52:28.043Z,4.70
2018-05-29T03:54:55.488Z,4.00
2018-05-29T03:57:23.098Z,4.10
2018-05-29T03:59:50.538Z,5.03
2018-05-29T04:02:18.201Z,4.80
2018-05-29T04:04:45.664Z,4.57
2018-05-29T04:07:13.964Z,4.93
2018-05-29T04:09:42.177Z,5.50
2018-05-29T04:12:09.644Z,4.67
2018-05-29T04:14:37.114Z,4.90
2018-05-29T04:17:04.642Z,4.60
2018-05-29T04:19:32.050Z,5.50
2018-05-29T04:21:59.528Z,4.00
2018-05-29T04:24:26.984Z,4.80
2018-05-29T04:26:55.203Z,5.93
2018-05-29T04:29:22.675Z,4.70
2018-05-29T04:31:50.145Z,4.73
2018-05-29T04:34:17.591Z,4.73
2018-05-29T04:36:45.045Z,5.03
2018-05-29T04:39:12.488Z,5.43
2018-05-29T04:41:39.930Z,4.53
2018-05-29T04:44:08.133Z,4.83
2018-05-29T04:46:35.583Z,4.30
2018-05-29T04:49:03.044Z,4.97
2018-05-29T04:51:30.495Z,5.00
2018-05-29T04:53:58.331Z,5.13
2018-05-29T04:56:25.785Z,4.90
2018-05-29T04:58:53.240Z,5.20
2018-05-29T05:01:20.691Z,5.30
2018-05-29T05:03:48.149Z,5.30
2018-05-29T05:06:15.633Z,5.20
2018-05-29T05:08:43.954Z,4.70
2018-05-29T05:11:12.174Z,5.30
2018-05-29T05:13:39.639Z,6.67
2018-05-29T05:16:07.129Z,6.07
2018-05-29T05:18:34.569Z,5.33
2018-05-29T05:21:02.046Z,5.80
2018-05-29T05:23:29.564Z,5.73
2018-05-29T05:25:56.959Z,5.53
2018-05-29T05:28:24.435Z,4.53
2018-05-29T05:30:52.660Z,5.00
2018-05-29T05:33:20.121Z,5.00
2018-05-29T05:35:47.563Z,4.47
2018-05-29T05:38:15.002Z,3.87
2018-05-29T05:40:42.810Z,4.37
2018-05-29T05:43:10.255Z,4.90
2018-05-29T05:45:37.706Z,6.00
2018-05-29T05:48:05.193Z,4.50
2018-05-29T05:50:32.642Z,4.57
2018-05-29T05:53:00.089Z,4.37
2018-05-29T05:55:27.660Z,4.30
2018-05-29T05:57:55.102Z,5.57
2018-05-29T06:00:22.571Z,4.30
2018-05-29T06:02:50.043Z,4.07
2018-05-29T06:05:17.507Z,4.37
2018-05-29T06:07:44.927Z,4.30
2018-05-29T06:10:12.389Z,4.30
2018-05-29T06:12:39.871Z,5.23
2018-05-29T06:15:08.154Z,4.30
2018-05-29T06:17:36.379Z,5.80
2018-05-29T06:20:03.852Z,4.77
2018-05-29T06:22:31.297Z,5.47
2018-05-29T06:24:58.804Z,4.37
2018-05-29T06:27:26.251Z,4.70
2018-05-29T06:29:53.691Z,5.27
2018-05-29T06:32:21.153Z,3.87
2018-05-29T06:34:48.591Z,6.77
2018-05-29T06:37:16.037Z,4.10
2018-05-29T06:39:43.484Z,3.80
2018-05-29T06:42:10.943Z,5.10
2018-05-29T06:44:38.413Z,3.87
2018-05-29T06:47:05.863Z,3.83
2018-05-29T06:49:33.330Z,4.10
2018-05-29T06:52:00.790Z,4.47
2018-05-29T06:54:28.239Z,4.40
2018-05-29T06:56:55.725Z,4.77
2018-05-29T06:59:23.163Z,4.80
2018-05-29T07:01:50.621Z,4.73
2018-05-29T07:04:18.067Z,4.20
2018-05-29T07:06:45.529Z,3.67
2018-05-29T07:09:24.745Z,4.07
2018-05-29T07:11:52.209Z,4.90
2018-05-29T07:14:20.460Z,4.70
2018-05-29T07:16:47.914Z,3.93
2018-05-29T07:19:15.358Z,3.43
2018-05-29T07:21:42.807Z,3.80
2018-05-29T07:24:11.029Z,4.17
2018-05-29T07:26:38.473Z,4.20
2018-05-29T07:29:05.910Z,4.20
2018-05-29T07:31:33.348Z,4.20
2018-05-29T07:34:01.576Z,3.70
2018-05-29T07:36:29.014Z,3.87
2018-05-29T07:38:56.479Z,3.50
2018-05-29T07:41:23.937Z,3.97
2018-05-29T07:43:51.399Z,3.73
2018-05-29T07:46:18.848Z,3.83
2018-05-29T07:48:46.292Z,3.70
2018-05-29T07:51:13.726Z,4.07
2018-05-29T07:53:41.179Z,3.30
2018-05-29T07:56:09.386Z,3.03
2018-05-29T07:58:36.845Z,3.23
2018-05-29T08:01:04.298Z,4.13
2018-05-29T08:03:31.756Z,4.30
2018-05-29T08:05:59.221Z,3.70
2018-05-29T08:08:26.666Z,4.60
2018-05-29T08:10:54.121Z,4.30
2018-05-29T08:13:22.327Z,4.73
2018-05-29T08:15:49.778Z,3.73
2018-05-29T08:18:17.238Z,4.00
2018-05-29T08:20:44.701Z,3.97
2018-05-29T08:23:12.135Z,3.73
2018-05-29T08:25:39.586Z,4.40
2018-05-29T08:28:07.056Z,3.23
2018-05-29T08:30:34.490Z,3.93
2018-05-29T08:33:01.964Z,4.17
2018-05-29T08:35:29.412Z,4.27
2018-05-29T08:37:56.866Z,3.93
2018-05-29T08:40:24.320Z,3.63
2018-05-29T08:42:51.767Z,3.40
2018-05-29T08:45:19.207Z,3.13
2018-05-29T08:47:46.638Z,3.50
2018-05-29T08:50:14.856Z,3.60
2018-05-29T08:52:42.312Z,4.60
2018-05-29T08:55:09.750Z,4.30
2018-05-29T08:57:37.211Z,4.17
2018-05-29T09:00:04.679Z,5.67
2018-05-29T09:02:32.113Z,3.53
2018-05-29T09:05:00.329Z,3.50
2018-05-29T09:07:27.793Z,5.27
2018-05-29T09:09:55.253Z,3.67
2018-05-29T09:12:22.722Z,3.70
2018-05-29T09:14:50.171Z,3.93
2018-05-29T09:17:17.628Z,3.90
2018-05-29T09:19:45.082Z,3.77
2018-05-29T09:22:12.633Z,3.93
2018-05-29T09:24:40.063Z,3.07
2018-05-29T09:27:07.531Z,4.10
2018-05-29T09:29:34.979Z,3.70
2018-05-29T09:32:02.500Z,3.10
2018-05-29T09:34:29.880Z,3.73
2018-05-29T09:36:57.346Z,4.00
2018-05-29T09:39:24.823Z,4.80
2018-05-29T09:41:52.294Z,3.70
2018-05-29T09:44:19.743Z,4.30
2018-05-29T09:46:47.979Z,4.70
2018-05-29T09:49:15.431Z,3.47
2018-05-29T09:51:43.672Z,4.13
2018-05-29T09:54:11.125Z,3.73
2018-05-29T09:56:38.587Z,3.90
2018-05-29T09:59:06.034Z,4.10
2018-05-29T10:01:33.487Z,4.33
2018-05-29T10:04:00.944Z,4.07
2018-05-29T10:06:28.446Z,5.30
2018-05-29T10:08:55.869Z,3.73
2018-05-29T10:11:23.367Z,4.13
2018-05-29T10:13:51.567Z,4.13
2018-05-29T10:16:19.013Z,4.40
2018-05-29T10:18:46.463Z,3.37
2018-05-29T10:21:13.916Z,3.57
2018-05-29T10:23:41.368Z,4.07
2018-05-29T10:26:08.838Z,3.50
2018-05-29T10:28:36.272Z,4.67
2018-05-29T10:31:04.501Z,3.33
2018-05-29T10:33:31.959Z,3.50
2018-05-29T10:35:59.407Z,3.87
2018-05-29T10:38:26.864Z,3.47
2018-05-29T10:40:54.314Z,4.30
2018-05-29T10:43:21.769Z,4.47
2018-05-29T10:45:49.215Z,3.60
2018-05-29T10:48:16.653Z,3.60
2018-05-29T10:50:44.098Z,3.77
2018-05-29T10:53:12.317Z,3.60
2018-05-29T10:55:39.753Z,4.20
2018-05-29T10:58:07.592Z,3.93
2018-05-29T11:00:35.812Z,4.37
2018-05-29T11:03:03.277Z,3.83
2018-05-29T11:05:30.732Z,4.23
2018-05-29T11:07:58.962Z,4.13
2018-05-29T11:10:27.174Z,4.77
2018-05-29T11:12:54.628Z,4.00
2018-05-29T11:15:22.076Z,3.70
2018-05-29T11:17:49.532Z,3.83
2018-05-29T11:20:16.984Z,4.30
2018-05-29T11:22:44.437Z,4.10
2018-05-29T11:25:11.897Z,4.03
2018-05-29T11:27:40.121Z,4.00
2018-05-29T11:30:07.576Z,3.60
2018-05-29T11:32:35.287Z,4.37
2018-05-29T11:35:02.729Z,3.70
2018-05-29T11:37:30.190Z,4.27
2018-05-29T11:39:57.657Z,3.60
2018-05-29T11:42:25.147Z,4.37
2018-05-29T11:44:52.576Z,3.90
2018-05-29T11:47:20.030Z,4.20
2018-05-29T11:49:47.473Z,3.77
2018-05-29T11:52:15.009Z,4.27
2018-05-29T11:54:43.236Z,3.30
2018-05-29T11:57:10.690Z,3.60
2018-05-29T11:59:38.131Z,4.03
2018-05-29T12:02:05.590Z,3.90
2018-05-29T12:04:33.305Z,4.00
2018-05-29T12:07:00.763Z,3.90
2018-05-29T12:09:28.216Z,3.37
2018-05-29T12:12:07.625Z,2.90
2018-05-29T12:14:35.070Z,3.80
2018-05-29T12:17:02.576Z,3.60
2018-05-29T12:19:30.809Z,4.20
2018-05-29T12:21:58.254Z,3.77
2018-05-29T12:24:25.721Z,4.33
2018-05-29T12:26:53.172Z,2.93
2018-05-29T12:29:20.640Z,2.93
2018-05-29T12:31:48.092Z,3.23
2018-05-29T12:34:15.559Z,3.27
2018-05-29T12:36:43.064Z,2.80
2018-05-29T12:39:11.280Z,3.47
2018-05-29T12:41:38.752Z,3.33
2018-05-29T12:44:06.194Z,2.97
2018-05-29T12:46:33.651Z,3.23
2018-05-29T12:49:01.127Z,2.90
2018-05-29T12:51:28.594Z,3.20
2018-05-29T12:53:56.052Z,3.43
2018-05-29T12:56:23.506Z,3.30
2018-05-29T12:58:50.951Z,3.40
2018-05-29T13:01:18.393Z,3.03
2018-05-29T13:03:45.841Z,4.00
2018-05-29T13:06:13.295Z,4.30
2018-05-29T13:08:40.760Z,3.60
2018-05-29T13:11:08.215Z,3.63
2018-05-29T13:13:35.666Z,3.50
2018-05-29T13:16:03.106Z,3.77
2018-05-29T13:18:30.565Z,4.37
2018-05-29T13:20:58.008Z,3.60
2018-05-29T13:23:25.468Z,3.63
2018-05-29T13:25:52.924Z,3.57
2018-05-29T13:28:20.378Z,3.77
2018-05-29T13:30:47.822Z,3.67
2018-05-29T13:33:16.064Z,3.70
2018-05-29T13:35:43.513Z,3.80
2018-05-29T13:38:10.994Z,3.63
2018-05-29T13:40:38.445Z,3.60
2018-05-29T13:43:05.928Z,3.70
2018-05-29T13:45:34.150Z,3.97
2018-05-29T13:48:01.594Z,3.57
2018-05-29T13:50:29.038Z,3.80
2018-05-29T13:52:56.499Z,3.87
2018-05-29T13:55:23.960Z,3.57
2018-05-29T13:57:52.208Z,3.57
2018-05-29T14:00:19.663Z,3.10
2018-05-29T14:02:47.113Z,3.47
2018-05-29T14:05:15.326Z,3.80
2018-05-29T14:07:42.787Z,4.10
2018-05-29T14:10:10.244Z,4.00
2018-05-29T14:12:37.684Z,3.67
2018-05-29T14:15:05.153Z,4.30
2018-05-29T14:17:32.600Z,3.50
2018-05-29T14:20:00.050Z,3.30
2018-05-29T14:22:27.490Z,3.43
2018-05-29T14:24:54.945Z,4.50
2018-05-29T14:27:22.393Z,4.03
2018-05-29T14:29:50.620Z,3.80
2018-05-29T14:32:18.442Z,3.30
2018-05-29T14:34:46.646Z,3.47
2018-05-29T14:37:14.091Z,3.17
2018-05-29T14:39:41.539Z,4.30
2018-05-29T14:42:09.759Z,4.20
2018-05-29T14:44:37.264Z,3.80
2018-05-29T14:47:04.710Z,3.70
2018-05-29T14:49:32.927Z,4.50
2018-05-29T14:52:00.375Z,3.30
2018-05-29T14:54:27.993Z,3.83
2018-05-29T14:56:56.198Z,3.77
2018-05-29T14:59:23.653Z,4.13
2018-05-29T15:01:51.099Z,3.20
2018-05-29T15:04:18.537Z,3.60
2018-05-29T15:06:46.793Z,3.80
2018-05-29T15:09:14.269Z,3.50
2018-05-29T15:11:42.481Z,3.70
2018-05-29T15:14:09.941Z,3.77
2018-05-29T15:16:37.380Z,3.93
2018-05-29T15:19:04.864Z,3.80
2018-05-29T15:21:32.309Z,4.27
2018-05-29T15:23:59.773Z,3.47
2018-05-29T15:26:27.252Z,4.00
2018-05-29T15:28:55.462Z,3.87
2018-05-29T15:31:23.691Z,3.80
2018-05-29T15:33:51.145Z,4.00
2018-05-29T15:36:18.583Z,3.83
2018-05-29T15:38:46.739Z,3.80
2018-05-29T15:41:14.939Z,4.30
2018-05-29T15:43:42.420Z,4.13
2018-05-29T15:46:09.872Z,3.63
2018-05-29T15:48:37.317Z,3.30
2018-05-29T15:51:04.775Z,4.33
2018-05-29T15:53:32.214Z,4.23
2018-05-29T15:55:59.690Z,3.90
2018-05-29T15:58:27.139Z,4.50
2018-05-29T16:00:54.603Z,3.90
2018-05-29T16:03:22.822Z,4.10
2018-05-29T16:05:51.043Z,4.57
2018-05-29T16:08:18.516Z,5.03
2018-05-29T16:10:45.979Z,4.53
2018-05-29T16:13:13.431Z,4.57
2018-05-29T16:15:40.887Z,5.07
2018-05-29T16:18:08.332Z,4.33
2018-05-29T16:20:36.553Z,3.53
2018-05-29T16:23:04.781Z,3.80
2018-05-29T16:25:32.238Z,4.20
2018-05-29T16:28:00.456Z,3.57
2018-05-29T16:30:28.670Z,5.13
2018-05-29T16:32:56.152Z,4.60
2018-05-29T16:35:23.613Z,4.10
2018-05-29T16:37:51.053Z,5.13
2018-05-29T16:40:18.524Z,4.60
2018-05-29T16:42:45.993Z,4.70
2018-05-29T16:45:13.484Z,3.90
2018-05-29T16:47:40.875Z,3.47
2018-05-29T16:50:08.310Z,4.00
2018-05-29T16:52:35.767Z,4.00
2018-05-29T16:55:03.223Z,3.57
2018-05-29T16:57:30.691Z,4.10
2018-05-29T16:59:58.160Z,4.23
2018-05-29T17:02:25.609Z,3.50
2018-05-29T17:04:53.132Z,4.37
2018-05-29T17:07:20.521Z,4.23
2018-05-29T17:09:47.996Z,4.20
2018-05-29T17:12:15.457Z,4.27
2018-05-29T17:14:42.907Z,3.63
2018-05-29T17:17:10.375Z,4.50
2018-05-29T17:19:37.885Z,3.83
2018-05-29T17:22:06.105Z,3.50
2018-05-29T17:24:33.543Z,3.53
2018-05-29T17:27:01.008Z,4.30
2018-05-29T17:29:28.450Z,4.13
2018-05-29T17:31:55.970Z,3.90
2018-05-29T17:34:23.350Z,4.13
2018-05-29T17:36:50.817Z,4.47
2018-05-29T17:39:18.271Z,4.00
2018-05-29T17:41:45.720Z,4.20
2018-05-29T17:44:13.164Z,4.23
2018-05-29T17:46:40.620Z,3.70
2018-05-29T17:49:08.080Z,3.80
2018-05-29T17:51:35.526Z,3.13
2018-05-29T17:54:02.988Z,4.63
2018-05-29T17:56:30.434Z,5.70
2018-05-29T17:58:58.648Z,3.97
2018-05-29T18:01:26.103Z,3.80
2018-05-29T18:03:54.325Z,5.10
2018-05-29T18:06:21.772Z,4.67
2018-05-29T18:08:49.987Z,4.60
2018-05-29T18:11:17.481Z,4.53
2018-05-29T18:13:44.935Z,4.40
2018-05-29T18:16:12.389Z,4.80
2018-05-29T18:18:39.851Z,4.03
2018-05-29T18:21:07.294Z,4.50
2018-05-29T18:23:34.748Z,4.63
2018-05-29T18:26:02.203Z,4.43
2018-05-29T18:28:29.660Z,3.83
2018-05-29T18:30:57.160Z,4.60
2018-05-29T18:33:24.629Z,4.10
2018-05-29T18:35:52.844Z,5.00
2018-05-29T18:38:20.298Z,4.53
2018-05-29T18:40:47.766Z,4.10
2018-05-29T18:43:15.210Z,5.50
2018-05-29T18:45:42.682Z,5.23
2018-05-29T18:48:10.212Z,4.50
2018-05-29T18:50:37.642Z,4.37
2018-05-29T18:53:05.873Z,4.80
2018-05-29T18:55:33.331Z,4.40
2018-05-29T18:58:01.612Z,5.20
2018-05-29T19:00:29.815Z,6.40
2018-05-29T19:02:57.272Z,7.03
2018-05-29T19:05:24.731Z,5.77
2018-05-29T19:07:52.181Z,6.20
2018-05-29T19:10:19.631Z,6.10
2018-05-29T19:12:47.096Z,6.57
2018-05-29T19:15:14.540Z,6.37
2018-05-29T19:17:42.016Z,7.07
2018-05-29T19:20:09.458Z,7.50
2018-05-29T19:22:36.938Z,7.20
2018-05-29T19:25:05.164Z,7.40
2018-05-29T19:27:32.633Z,8.53
2018-05-29T19:30:00.555Z,8.17
2018-05-29T19:32:28.129Z,9.30
2018-05-29T19:34:55.638Z,11.50
2018-05-29T19:37:23.125Z,8.47
2018-05-29T19:39:50.590Z,3.90
2018-05-29T19:42:18.437Z,3.80
2018-05-29T19:44:46.683Z,4.90
2018-05-29T19:47:14.123Z,6.23
2018-05-29T19:49:41.572Z,5.27
2018-05-29T19:52:09.040Z,3.13
2018-05-29T19:54:36.470Z,4.10
2018-05-29T19:57:03.933Z,5.20
2018-05-29T19:59:31.368Z,3.70
2018-05-29T20:01:58.814Z,4.23
2018-05-29T20:04:27.025Z,4.20
2018-05-29T20:06:54.512Z,4.53
2018-05-29T20:09:21.943Z,3.73
2018-05-29T20:11:49.383Z,4.20
2018-05-29T20:14:16.853Z,4.40
2018-05-29T20:16:44.294Z,4.73
2018-05-29T20:19:11.737Z,4.80
2018-05-29T20:21:39.182Z,4.50
2018-05-29T20:24:07.416Z,5.13
2018-05-29T20:26:34.868Z,4.20
2018-05-29T20:29:02.408Z,5.60
2018-05-29T20:31:29.946Z,4.97
2018-05-29T20:33:58.175Z,5.37
2018-05-29T20:36:25.705Z,5.47
2018-05-29T20:39:04.519Z,4.37
2018-05-29T20:44:31.312Z,4.80
2018-05-29T20:47:15.422Z,4.83
2018-05-29T20:49:42.883Z,4.20
2018-05-29T20:52:30.756Z,4.53
2018-05-29T20:54:58.246Z,4.10
2018-05-29T21:00:21.285Z,3.87
2018-05-29T21:03:08.023Z,4.03
2018-05-29T21:05:35.501Z,3.80
2018-05-29T21:08:02.948Z,4.33
2018-05-29T21:10:31.299Z,3.43
2018-05-29T21:12:58.768Z,4.77
2018-05-29T21:15:26.989Z,3.60
2018-05-29T21:17:54.444Z,4.20
2018-05-29T21:20:21.895Z,3.90
2018-05-29T21:22:49.343Z,3.00
2018-05-29T21:25:16.797Z,3.33
2018-05-29T21:27:44.261Z,2.83
2018-05-29T21:30:11.698Z,2.40
2018-05-29T21:32:39.136Z,2.30
2018-05-29T21:35:07.418Z,2.97
2018-05-29T21:37:34.800Z,3.07
2018-05-29T21:40:05.792Z,3.53
2018-05-29T21:42:33.240Z,3.17
2018-05-29T21:45:00.694Z,3.30
2018-05-29T21:47:28.144Z,3.53
2018-05-29T21:49:55.592Z,6.90
2018-05-29T21:52:23.044Z,11.60
2018-05-29T21:54:50.488Z,8.80
2018-05-29T21:57:17.957Z,10.03
2018-05-29T21:59:45.456Z,4.67
2018-05-29T22:02:13.713Z,3.57
2018-05-29T22:04:41.174Z,4.00
2018-05-29T22:07:09.465Z,2.77
2018-05-29T22:09:37.768Z,3.30
2018-05-29T22:12:05.277Z,3.50
2018-05-29T22:14:32.806Z,3.33
2018-05-29T22:17:00.331Z,3.53
2018-05-29T22:19:27.834Z,4.77
2018-05-29T22:21:55.315Z,4.43
2018-05-29T22:24:23.583Z,4.80
2018-05-29T22:26:51.032Z,4.73
2018-05-29T22:29:18.488Z,4.97
2018-05-29T22:31:45.945Z,4.73
2018-05-29T22:34:13.398Z,4.77
2018-05-29T22:36:41.762Z,5.10
2018-05-29T22:39:09.226Z,4.97
2018-05-29T22:41:36.666Z,4.93
2018-05-29T22:44:04.117Z,4.53
2018-05-29T22:46:31.639Z,6.07
2018-05-29T22:48:59.034Z,5.90
2018-05-29T22:51:26.476Z,6.10
2018-05-29T22:53:53.940Z,5.67
2018-05-29T22:56:22.144Z,5.07
2018-05-29T22:58:49.594Z,6.07
2018-05-29T23:01:17.052Z,5.70
2018-05-29T23:03:44.500Z,6.60
2018-05-29T23:06:11.958Z,4.53
2018-05-29T23:08:39.431Z,5.80
2018-05-29T23:11:06.880Z,5.50
2018-05-29T23:13:34.316Z,5.87
2018-05-29T23:16:01.785Z,5.53
2018-05-29T23:18:29.263Z,5.57
2018-05-29T23:20:56.679Z,5.63
2018-05-29T23:23:24.111Z,5.17
2018-05-29T23:25:51.557Z,5.30
2018-05-29T23:28:19.772Z,5.70
2018-05-29T23:30:47.259Z,4.80
2018-05-29T23:33:14.717Z,4.87
2018-05-29T23:35:42.165Z,5.00
2018-05-29T23:38:09.599Z,4.67
2018-05-29T23:40:37.099Z,5.20
2018-05-29T23:43:04.552Z,5.83
2018-05-29T23:45:31.995Z,4.80
2018-05-29T23:47:59.449Z,5.50
2018-05-29T23:50:27.656Z,4.60
2018-05-29T23:52:55.857Z,5.03
2018-05-29T23:55:23.300Z,5.87
2018-05-29T23:57:50.740Z,5.07
